CKR7 weather

Virden (Gabrielle Farm) Airport
Virden, Manitoba, Canada

Public forecast

Using degrees Celsius for public forecast. Weather courtesy of forecast.io.

Closest aviation weather report (METAR) to Virden (Gabrielle Farm) Airport

Closest report is Brandon Municipal Airport, 39.6 nm (73.3 km) ENE. Retrieved 2019/10/14 14:00 UTC (44 minutes ago):

CYBR 141400Z 10003KT 060V140 15SM OVC038 01/M01 A2985 RMK SC8 SLP130

Closest aviation forecast (TAF) to Virden (Gabrielle Farm) Airport

Closest forecast is Brandon Municipal Airport, 39.6 nm (73.3 km) ENE. Retrieved 2019/10/14 12:45 UTC (2 hours ago):

TAF TAF CYBR 141142Z 1412/1424 12003KT P6SM SCT020 BKN040 TEMPO 1412/1415 2SM BR BKN020 PROB30 1413/1414 3/4SM BR VV006 FM141500 12003KT P6SM FEW020 TEMPO 1415/1417 BKN020 FM141700 12003KT P6SM BKN110 FM142200 12008KT P6SM BKN090 RMK NXT FCST BY 141800Z